sensor_id;sensor_type;location;lat;lon;timestamp;P1;durP1;ratioP1;P2;durP2;ratioP2
29824;SDS011;16713;52.916;12.834;2022-11-09T00:00:59;2.17;;;1.92;;
29824;SDS011;16713;52.916;12.834;2022-11-09T00:03:27;8.73;;;2.95;;
29824;SDS011;16713;52.916;12.834;2022-11-09T00:05:54;5.00;;;2.30;;
29824;SDS011;16713;52.916;12.834;2022-11-09T00:08:21;5.90;;;2.40;;
29824;SDS011;16713;52.916;12.834;2022-11-09T00:10:48;6.22;;;2.58;;
29824;SDS011;16713;52.916;12.834;2022-11-09T00:13:14;4.10;;;2.50;;
29824;SDS011;16713;52.916;12.834;2022-11-09T00:15:41;3.22;;;2.50;;
29824;SDS011;16713;52.916;12.834;2022-11-09T00:18:07;5.53;;;2.80;;
29824;SDS011;16713;52.916;12.834;2022-11-09T00:20:34;5.28;;;2.58;;
29824;SDS011;16713;52.916;12.834;2022-11-09T00:23:00;4.35;;;2.42;;
29824;SDS011;16713;52.916;12.834;2022-11-09T00:25:26;7.18;;;3.38;;
29824;SDS011;16713;52.916;12.834;2022-11-09T00:27:53;5.43;;;2.50;;
29824;SDS011;16713;52.916;12.834;2022-11-09T00:30:19;5.55;;;2.50;;
29824;SDS011;16713;52.916;12.834;2022-11-09T00:32:46;4.88;;;2.63;;
29824;SDS011;16713;52.916;12.834;2022-11-09T00:35:13;5.95;;;2.70;;
29824;SDS011;16713;52.916;12.834;2022-11-09T00:37:39;5.18;;;2.63;;
29824;SDS011;16713;52.916;12.834;2022-11-09T00:40:06;4.40;;;2.15;;
29824;SDS011;16713;52.916;12.834;2022-11-09T00:42:33;8.15;;;2.20;;
29824;SDS011;16713;52.916;12.834;2022-11-09T00:45:00;6.75;;;2.78;;
29824;SDS011;16713;52.916;12.834;2022-11-09T00:47:26;6.47;;;2.53;;
29824;SDS011;16713;52.916;12.834;2022-11-09T00:49:52;4.90;;;2.35;;
29824;SDS011;16713;52.916;12.834;2022-11-09T00:52:19;4.07;;;2.50;;
29824;SDS011;16713;52.916;12.834;2022-11-09T00:54:45;4.00;;;2.30;;
29824;SDS011;16713;52.916;12.834;2022-11-09T00:57:12;5.03;;;2.42;;
29824;SDS011;16713;52.916;12.834;2022-11-09T00:59:39;2.65;;;2.08;;
29824;SDS011;16713;52.916;12.834;2022-11-09T01:02:05;6.07;;;2.72;;
29824;SDS011;16713;52.916;12.834;2022-11-09T01:04:32;3.63;;;2.03;;
29824;SDS011;16713;52.916;12.834;2022-11-09T01:06:58;2.78;;;2.17;;
29824;SDS011;16713;52.916;12.834;2022-11-09T01:09:25;4.32;;;2.20;;
29824;SDS011;16713;52.916;12.834;2022-11-09T01:11:51;4.35;;;2.40;;
29824;SDS011;16713;52.916;12.834;2022-11-09T01:14:18;2.90;;;2.58;;
29824;SDS011;16713;52.916;12.834;2022-11-09T01:16:44;3.35;;;2.08;;
29824;SDS011;16713;52.916;12.834;2022-11-09T01:19:11;4.05;;;2.22;;
29824;SDS011;16713;52.916;12.834;2022-11-09T01:21:37;5.00;;;2.10;;
29824;SDS011;16713;52.916;12.834;2022-11-09T01:24:03;5.47;;;2.88;;
29824;SDS011;16713;52.916;12.834;2022-11-09T01:26:30;3.17;;;2.00;;
29824;SDS011;16713;52.916;12.834;2022-11-09T01:28:57;5.00;;;2.28;;
29824;SDS011;16713;52.916;12.834;2022-11-09T01:31:24;5.85;;;2.25;;
29824;SDS011;16713;52.916;12.834;2022-11-09T01:33:50;3.83;;;2.20;;
29824;SDS011;16713;52.916;12.834;2022-11-09T01:36:18;4.82;;;1.98;;
29824;SDS011;16713;52.916;12.834;2022-11-09T01:38:46;2.28;;;1.70;;
29824;SDS011;16713;52.916;12.834;2022-11-09T01:41:14;3.40;;;1.98;;
29824;SDS011;16713;52.916;12.834;2022-11-09T01:43:43;5.85;;;2.40;;
29824;SDS011;16713;52.916;12.834;2022-11-09T01:48:56;3.33;;;2.33;;
29824;SDS011;16713;52.916;12.834;2022-11-09T01:51:29;4.45;;;2.38;;
29824;SDS011;16713;52.916;12.834;2022-11-09T01:54:00;4.63;;;2.60;;
29824;SDS011;16713;52.916;12.834;2022-11-09T01:56:31;4.75;;;2.30;;
29824;SDS011;16713;52.916;12.834;2022-11-09T01:58:59;4.82;;;2.38;;
29824;SDS011;16713;52.916;12.834;2022-11-09T02:01:29;4.23;;;2.50;;
29824;SDS011;16713;52.916;12.834;2022-11-09T02:04:40;5.45;;;2.35;;
29824;SDS011;16713;52.916;12.834;2022-11-09T02:11:54;2.35;;;2.08;;
29824;SDS011;16713;52.916;12.834;2022-11-09T02:14:21;5.10;;;2.05;;
29824;SDS011;16713;52.916;12.834;2022-11-09T02:16:50;5.75;;;2.35;;
29824;SDS011;16713;52.916;12.834;2022-11-09T02:19:17;3.63;;;2.65;;
29824;SDS011;16713;52.916;12.834;2022-11-09T02:21:43;3.67;;;2.42;;
29824;SDS011;16713;52.916;12.834;2022-11-09T02:24:10;3.92;;;2.40;;
29824;SDS011;16713;52.916;12.834;2022-11-09T02:26:39;4.30;;;2.20;;
29824;SDS011;16713;52.916;12.834;2022-11-09T02:29:11;3.30;;;2.65;;
29824;SDS011;16713;52.916;12.834;2022-11-09T02:34:12;3.88;;;2.30;;
29824;SDS011;16713;52.916;12.834;2022-11-09T02:36:41;2.88;;;2.10;;
29824;SDS011;16713;52.916;12.834;2022-11-09T02:39:11;4.65;;;2.30;;
29824;SDS011;16713;52.916;12.834;2022-11-09T02:41:42;3.67;;;2.50;;
29824;SDS011;16713;52.916;12.834;2022-11-09T02:44:12;4.05;;;2.40;;
29824;SDS011;16713;52.916;12.834;2022-11-09T02:46:40;2.85;;;1.92;;
29824;SDS011;16713;52.916;12.834;2022-11-09T02:49:07;4.85;;;2.70;;
29824;SDS011;16713;52.916;12.834;2022-11-09T02:51:33;2.58;;;1.92;;
29824;SDS011;16713;52.916;12.834;2022-11-09T02:54:00;3.28;;;2.53;;
29824;SDS011;16713;52.916;12.834;2022-11-09T02:56:26;3.95;;;1.98;;
29824;SDS011;16713;52.916;12.834;2022-11-09T02:58:53;3.10;;;2.17;;
29824;SDS011;16713;52.916;12.834;2022-11-09T03:01:19;2.83;;;1.90;;
29824;SDS011;16713;52.916;12.834;2022-11-09T03:03:46;2.70;;;2.20;;
29824;SDS011;16713;52.916;12.834;2022-11-09T03:06:13;5.03;;;2.10;;
29824;SDS011;16713;52.916;12.834;2022-11-09T03:08:39;3.03;;;1.88;;
29824;SDS011;16713;52.916;12.834;2022-11-09T03:11:05;3.35;;;2.50;;
29824;SDS011;16713;52.916;12.834;2022-11-09T03:13:32;3.55;;;2.22;;
29824;SDS011;16713;52.916;12.834;2022-11-09T03:16:03;5.28;;;2.22;;
29824;SDS011;16713;52.916;12.834;2022-11-09T03:18:31;2.95;;;2.08;;
29824;SDS011;16713;52.916;12.834;2022-11-09T03:21:04;3.25;;;2.47;;
29824;SDS011;16713;52.916;12.834;2022-11-09T03:23:31;4.00;;;2.55;;
29824;SDS011;16713;52.916;12.834;2022-11-09T03:25:58;2.85;;;1.90;;
29824;SDS011;16713;52.916;12.834;2022-11-09T03:28:24;3.60;;;2.80;;
29824;SDS011;16713;52.916;12.834;2022-11-09T03:30:51;3.30;;;2.30;;
29824;SDS011;16713;52.916;12.834;2022-11-09T03:33:18;3.17;;;2.47;;
29824;SDS011;16713;52.916;12.834;2022-11-09T03:35:45;3.65;;;2.35;;
29824;SDS011;16713;52.916;12.834;2022-11-09T03:38:12;2.88;;;2.47;;
29824;SDS011;16713;52.916;12.834;2022-11-09T03:40:38;4.53;;;2.53;;
29824;SDS011;16713;52.916;12.834;2022-11-09T03:43:05;4.35;;;2.25;;
29824;SDS011;16713;52.916;12.834;2022-11-09T03:45:31;5.43;;;2.55;;
29824;SDS011;16713;52.916;12.834;2022-11-09T03:47:58;7.30;;;2.50;;
29824;SDS011;16713;52.916;12.834;2022-11-09T03:50:28;3.75;;;2.53;;
29824;SDS011;16713;52.916;12.834;2022-11-09T03:52:57;4.78;;;2.75;;
29824;SDS011;16713;52.916;12.834;2022-11-09T03:55:24;4.70;;;2.25;;
29824;SDS011;16713;52.916;12.834;2022-11-09T03:57:51;3.63;;;2.45;;
29824;SDS011;16713;52.916;12.834;2022-11-09T04:00:18;5.35;;;2.33;;
29824;SDS011;16713;52.916;12.834;2022-11-09T04:02:46;5.30;;;2.47;;
29824;SDS011;16713;52.916;12.834;2022-11-09T04:05:13;3.20;;;2.30;;
29824;SDS011;16713;52.916;12.834;2022-11-09T04:07:45;2.40;;;2.20;;
29824;SDS011;16713;52.916;12.834;2022-11-09T04:10:13;5.35;;;2.80;;
29824;SDS011;16713;52.916;12.834;2022-11-09T04:12:40;4.30;;;2.78;;
29824;SDS011;16713;52.916;12.834;2022-11-09T04:15:06;3.08;;;2.60;;
29824;SDS011;16713;52.916;12.834;2022-11-09T04:17:33;4.38;;;2.78;;
29824;SDS011;16713;52.916;12.834;2022-11-09T04:20:00;4.82;;;2.75;;
29824;SDS011;16713;52.916;12.834;2022-11-09T04:22:27;4.13;;;2.78;;
29824;SDS011;16713;52.916;12.834;2022-11-09T04:24:53;4.78;;;2.92;;
29824;SDS011;16713;52.916;12.834;2022-11-09T04:27:20;2.83;;;2.53;;
29824;SDS011;16713;52.916;12.834;2022-11-09T04:29:46;2.78;;;2.40;;
29824;SDS011;16713;52.916;12.834;2022-11-09T04:32:13;5.80;;;2.45;;
29824;SDS011;16713;52.916;12.834;2022-11-09T04:34:39;4.22;;;2.88;;
29824;SDS011;16713;52.916;12.834;2022-11-09T04:37:07;4.75;;;2.67;;
29824;SDS011;16713;52.916;12.834;2022-11-09T04:39:34;4.90;;;3.08;;
29824;SDS011;16713;52.916;12.834;2022-11-09T04:42:00;4.00;;;2.22;;
29824;SDS011;16713;52.916;12.834;2022-11-09T04:44:27;4.93;;;2.88;;
29824;SDS011;16713;52.916;12.834;2022-11-09T04:46:56;6.55;;;2.92;;
29824;SDS011;16713;52.916;12.834;2022-11-09T04:49:23;5.10;;;2.70;;
29824;SDS011;16713;52.916;12.834;2022-11-09T04:51:49;4.93;;;3.08;;
29824;SDS011;16713;52.916;12.834;2022-11-09T04:54:15;3.85;;;2.85;;
29824;SDS011;16713;52.916;12.834;2022-11-09T04:56:42;4.53;;;2.70;;
29824;SDS011;16713;52.916;12.834;2022-11-09T04:59:08;3.95;;;2.58;;
29824;SDS011;16713;52.916;12.834;2022-11-09T05:01:35;5.22;;;2.33;;
29824;SDS011;16713;52.916;12.834;2022-11-09T05:04:01;3.95;;;3.00;;
29824;SDS011;16713;52.916;12.834;2022-11-09T05:06:28;5.35;;;2.75;;
29824;SDS011;16713;52.916;12.834;2022-11-09T05:08:58;2.60;;;2.33;;
29824;SDS011;16713;52.916;12.834;2022-11-09T05:11:25;5.15;;;2.75;;
29824;SDS011;16713;52.916;12.834;2022-11-09T05:13:52;4.60;;;2.47;;
29824;SDS011;16713;52.916;12.834;2022-11-09T05:16:19;4.85;;;2.78;;
29824;SDS011;16713;52.916;12.834;2022-11-09T05:18:46;3.85;;;2.67;;
29824;SDS011;16713;52.916;12.834;2022-11-09T05:21:12;4.70;;;2.33;;
29824;SDS011;16713;52.916;12.834;2022-11-09T05:27:19;5.75;;;2.90;;
29824;SDS011;16713;52.916;12.834;2022-11-09T05:29:46;6.05;;;2.80;;
29824;SDS011;16713;52.916;12.834;2022-11-09T05:32:12;3.63;;;2.70;;
29824;SDS011;16713;52.916;12.834;2022-11-09T05:34:39;4.05;;;2.63;;
29824;SDS011;16713;52.916;12.834;2022-11-09T05:37:05;4.15;;;2.45;;
29824;SDS011;16713;52.916;12.834;2022-11-09T05:39:32;4.65;;;2.67;;
29824;SDS011;16713;52.916;12.834;2022-11-09T05:41:58;4.93;;;2.88;;
29824;SDS011;16713;52.916;12.834;2022-11-09T05:44:24;3.72;;;2.75;;
29824;SDS011;16713;52.916;12.834;2022-11-09T05:46:51;5.13;;;2.60;;
29824;SDS011;16713;52.916;12.834;2022-11-09T05:49:17;2.97;;;2.42;;
29824;SDS011;16713;52.916;12.834;2022-11-09T05:51:44;2.92;;;2.45;;
29824;SDS011;16713;52.916;12.834;2022-11-09T05:54:10;2.78;;;2.50;;
29824;SDS011;16713;52.916;12.834;2022-11-09T05:56:37;5.38;;;2.60;;
29824;SDS011;16713;52.916;12.834;2022-11-09T05:59:03;3.65;;;2.88;;
29824;SDS011;16713;52.916;12.834;2022-11-09T06:01:30;5.05;;;2.72;;
29824;SDS011;16713;52.916;12.834;2022-11-09T06:03:56;5.07;;;2.97;;
29824;SDS011;16713;52.916;12.834;2022-11-09T06:06:22;3.95;;;2.70;;
29824;SDS011;16713;52.916;12.834;2022-11-09T06:08:49;4.03;;;2.60;;
29824;SDS011;16713;52.916;12.834;2022-11-09T06:11:16;2.85;;;2.22;;
29824;SDS011;16713;52.916;12.834;2022-11-09T06:13:49;6.38;;;2.63;;
29824;SDS011;16713;52.916;12.834;2022-11-09T06:16:16;6.93;;;3.00;;
29824;SDS011;16713;52.916;12.834;2022-11-09T06:18:43;7.53;;;2.80;;
29824;SDS011;16713;52.916;12.834;2022-11-09T06:21:09;4.63;;;2.83;;
29824;SDS011;16713;52.916;12.834;2022-11-09T06:23:36;3.88;;;2.60;;
29824;SDS011;16713;52.916;12.834;2022-11-09T06:26:06;4.53;;;2.60;;
29824;SDS011;16713;52.916;12.834;2022-11-09T06:28:35;4.60;;;2.47;;
29824;SDS011;16713;52.916;12.834;2022-11-09T06:31:03;5.05;;;3.13;;
29824;SDS011;16713;52.916;12.834;2022-11-09T06:33:32;3.47;;;2.50;;
29824;SDS011;16713;52.916;12.834;2022-11-09T06:36:00;5.18;;;2.92;;
29824;SDS011;16713;52.916;12.834;2022-11-09T06:38:27;3.90;;;2.40;;
29824;SDS011;16713;52.916;12.834;2022-11-09T06:40:55;4.45;;;2.17;;
29824;SDS011;16713;52.916;12.834;2022-11-09T06:43:23;3.33;;;2.58;;
29824;SDS011;16713;52.916;12.834;2022-11-09T06:45:50;7.28;;;2.58;;
29824;SDS011;16713;52.916;12.834;2022-11-09T06:48:17;3.35;;;2.25;;
29824;SDS011;16713;52.916;12.834;2022-11-09T06:50:45;2.40;;;1.95;;
29824;SDS011;16713;52.916;12.834;2022-11-09T06:53:12;6.47;;;2.67;;
29824;SDS011;16713;52.916;12.834;2022-11-09T06:55:40;3.20;;;2.25;;
29824;SDS011;16713;52.916;12.834;2022-11-09T06:58:15;3.08;;;2.42;;
29824;SDS011;16713;52.916;12.834;2022-11-09T07:00:42;6.90;;;3.78;;
29824;SDS011;16713;52.916;12.834;2022-11-09T07:03:13;4.20;;;2.80;;
29824;SDS011;16713;52.916;12.834;2022-11-09T07:05:41;4.47;;;2.35;;
29824;SDS011;16713;52.916;12.834;2022-11-09T07:08:07;4.25;;;2.50;;
29824;SDS011;16713;52.916;12.834;2022-11-09T07:10:35;4.80;;;2.60;;
29824;SDS011;16713;52.916;12.834;2022-11-09T07:13:02;6.43;;;2.60;;
29824;SDS011;16713;52.916;12.834;2022-11-09T07:15:28;2.72;;;2.30;;
29824;SDS011;16713;52.916;12.834;2022-11-09T07:17:56;6.35;;;2.90;;
29824;SDS011;16713;52.916;12.834;2022-11-09T07:20:26;4.03;;;2.67;;
29824;SDS011;16713;52.916;12.834;2022-11-09T07:22:53;3.97;;;3.05;;
29824;SDS011;16713;52.916;12.834;2022-11-09T07:25:20;6.68;;;2.92;;
29824;SDS011;16713;52.916;12.834;2022-11-09T07:27:47;5.30;;;2.80;;
29824;SDS011;16713;52.916;12.834;2022-11-09T07:30:14;4.22;;;2.78;;
29824;SDS011;16713;52.916;12.834;2022-11-09T07:32:40;6.43;;;2.72;;
29824;SDS011;16713;52.916;12.834;2022-11-09T07:35:28;8.10;;;2.78;;
29824;SDS011;16713;52.916;12.834;2022-11-09T07:37:58;5.97;;;3.15;;
29824;SDS011;16713;52.916;12.834;2022-11-09T07:40:26;4.63;;;2.80;;
29824;SDS011;16713;52.916;12.834;2022-11-09T07:42:56;3.72;;;2.35;;
29824;SDS011;16713;52.916;12.834;2022-11-09T07:45:23;4.15;;;2.78;;
29824;SDS011;16713;52.916;12.834;2022-11-09T07:47:53;5.10;;;2.60;;
29824;SDS011;16713;52.916;12.834;2022-11-09T07:50:21;3.80;;;2.20;;
29824;SDS011;16713;52.916;12.834;2022-11-09T07:52:47;3.50;;;2.55;;
29824;SDS011;16713;52.916;12.834;2022-11-09T07:55:13;8.45;;;3.00;;
29824;SDS011;16713;52.916;12.834;2022-11-09T07:57:40;5.22;;;2.88;;
29824;SDS011;16713;52.916;12.834;2022-11-09T08:00:09;7.90;;;2.92;;
29824;SDS011;16713;52.916;12.834;2022-11-09T08:02:37;7.57;;;2.33;;
29824;SDS011;16713;52.916;12.834;2022-11-09T08:05:03;6.45;;;3.05;;
29824;SDS011;16713;52.916;12.834;2022-11-09T08:07:30;3.90;;;2.40;;
29824;SDS011;16713;52.916;12.834;2022-11-09T08:09:58;5.93;;;3.15;;
29824;SDS011;16713;52.916;12.834;2022-11-09T08:12:25;4.10;;;2.40;;
29824;SDS011;16713;52.916;12.834;2022-11-09T08:14:51;4.95;;;2.50;;
29824;SDS011;16713;52.916;12.834;2022-11-09T08:17:18;5.68;;;2.75;;
29824;SDS011;16713;52.916;12.834;2022-11-09T08:19:44;4.45;;;2.80;;
29824;SDS011;16713;52.916;12.834;2022-11-09T08:22:10;4.40;;;2.60;;
29824;SDS011;16713;52.916;12.834;2022-11-09T08:24:37;4.43;;;2.72;;
29824;SDS011;16713;52.916;12.834;2022-11-09T08:27:04;3.88;;;2.85;;
29824;SDS011;16713;52.916;12.834;2022-11-09T08:29:30;5.43;;;2.38;;
29824;SDS011;16713;52.916;12.834;2022-11-09T08:31:57;4.80;;;2.60;;
29824;SDS011;16713;52.916;12.834;2022-11-09T08:34:23;3.90;;;2.90;;
29824;SDS011;16713;52.916;12.834;2022-11-09T08:36:49;5.82;;;2.42;;
29824;SDS011;16713;52.916;12.834;2022-11-09T08:39:16;3.92;;;3.33;;
29824;SDS011;16713;52.916;12.834;2022-11-09T08:41:42;5.95;;;2.80;;
29824;SDS011;16713;52.916;12.834;2022-11-09T08:44:09;5.40;;;2.95;;
29824;SDS011;16713;52.916;12.834;2022-11-09T08:46:35;5.60;;;2.50;;
29824;SDS011;16713;52.916;12.834;2022-11-09T08:49:06;4.82;;;2.95;;
29824;SDS011;16713;52.916;12.834;2022-11-09T08:51:33;6.50;;;3.50;;
29824;SDS011;16713;52.916;12.834;2022-11-09T08:53:59;5.20;;;3.13;;
29824;SDS011;16713;52.916;12.834;2022-11-09T08:56:25;3.92;;;3.17;;
29824;SDS011;16713;52.916;12.834;2022-11-09T08:58:52;10.88;;;3.75;;
29824;SDS011;16713;52.916;12.834;2022-11-09T09:01:18;7.40;;;3.25;;
29824;SDS011;16713;52.916;12.834;2022-11-09T09:03:45;3.92;;;3.22;;
29824;SDS011;16713;52.916;12.834;2022-11-09T09:06:12;6.35;;;3.90;;
29824;SDS011;16713;52.916;12.834;2022-11-09T09:08:38;6.05;;;3.13;;
29824;SDS011;16713;52.916;12.834;2022-11-09T09:11:04;3.70;;;3.08;;
29824;SDS011;16713;52.916;12.834;2022-11-09T09:13:31;5.32;;;2.88;;
29824;SDS011;16713;52.916;12.834;2022-11-09T09:16:07;3.63;;;3.15;;
29824;SDS011;16713;52.916;12.834;2022-11-09T09:18:38;4.38;;;3.05;;
29824;SDS011;16713;52.916;12.834;2022-11-09T09:21:05;3.95;;;2.63;;
29824;SDS011;16713;52.916;12.834;2022-11-09T09:23:35;6.07;;;2.88;;
29824;SDS011;16713;52.916;12.834;2022-11-09T09:26:02;4.72;;;2.95;;
29824;SDS011;16713;52.916;12.834;2022-11-09T09:28:29;8.38;;;2.92;;
29824;SDS011;16713;52.916;12.834;2022-11-09T09:30:56;6.68;;;3.05;;
29824;SDS011;16713;52.916;12.834;2022-11-09T09:33:25;4.05;;;2.67;;
29824;SDS011;16713;52.916;12.834;2022-11-09T09:35:54;5.15;;;3.35;;
29824;SDS011;16713;52.916;12.834;2022-11-09T09:38:22;6.32;;;2.72;;
29824;SDS011;16713;52.916;12.834;2022-11-09T09:43:25;6.75;;;3.58;;
29824;SDS011;16713;52.916;12.834;2022-11-09T09:45:55;3.22;;;2.45;;
29824;SDS011;16713;52.916;12.834;2022-11-09T09:48:29;3.45;;;2.83;;
29824;SDS011;16713;52.916;12.834;2022-11-09T09:51:01;7.22;;;3.60;;
29824;SDS011;16713;52.916;12.834;2022-11-09T09:53:35;5.45;;;3.65;;
29824;SDS011;16713;52.916;12.834;2022-11-09T09:58:46;5.65;;;3.40;;
29824;SDS011;16713;52.916;12.834;2022-11-09T10:01:17;7.93;;;3.10;;
29824;SDS011;16713;52.916;12.834;2022-11-09T10:03:46;3.17;;;2.60;;
29824;SDS011;16713;52.916;12.834;2022-11-09T10:09:09;4.80;;;3.33;;
29824;SDS011;16713;52.916;12.834;2022-11-09T10:25:26;4.72;;;2.95;;
29824;SDS011;16713;52.916;12.834;2022-11-09T10:28:14;3.15;;;2.58;;
29824;SDS011;16713;52.916;12.834;2022-11-09T10:30:42;4.43;;;2.80;;
29824;SDS011;16713;52.916;12.834;2022-11-09T10:35:43;8.45;;;2.67;;
29824;SDS011;16713;52.916;12.834;2022-11-09T10:38:17;5.40;;;2.70;;
29824;SDS011;16713;52.916;12.834;2022-11-09T10:40:51;5.25;;;3.63;;
29824;SDS011;16713;52.916;12.834;2022-11-09T10:43:22;3.90;;;3.00;;
29824;SDS011;16713;52.916;12.834;2022-11-09T10:45:56;5.85;;;3.10;;
29824;SDS011;16713;52.916;12.834;2022-11-09T10:48:37;4.05;;;3.22;;
29824;SDS011;16713;52.916;12.834;2022-11-09T10:51:05;4.15;;;2.40;;
29824;SDS011;16713;52.916;12.834;2022-11-09T10:54:12;5.68;;;2.75;;
29824;SDS011;16713;52.916;12.834;2022-11-09T10:57:35;4.40;;;3.30;;
29824;SDS011;16713;52.916;12.834;2022-11-09T11:07:33;5.95;;;2.72;;
29824;SDS011;16713;52.916;12.834;2022-11-09T11:12:56;5.78;;;2.58;;
29824;SDS011;16713;52.916;12.834;2022-11-09T11:15:43;3.75;;;2.53;;
29824;SDS011;16713;52.916;12.834;2022-11-09T11:18:17;4.85;;;2.67;;
29824;SDS011;16713;52.916;12.834;2022-11-09T11:20:47;6.47;;;2.70;;
29824;SDS011;16713;52.916;12.834;2022-11-09T11:23:15;5.47;;;3.00;;
29824;SDS011;16713;52.916;12.834;2022-11-09T11:28:25;7.90;;;3.65;;
29824;SDS011;16713;52.916;12.834;2022-11-09T11:30:58;6.38;;;3.72;;
29824;SDS011;16713;52.916;12.834;2022-11-09T11:33:25;4.72;;;3.30;;
29824;SDS011;16713;52.916;12.834;2022-11-09T11:36:07;7.03;;;3.33;;
29824;SDS011;16713;52.916;12.834;2022-11-09T11:44:29;6.57;;;3.70;;
29824;SDS011;16713;52.916;12.834;2022-11-09T11:49:32;6.00;;;3.40;;
29824;SDS011;16713;52.916;12.834;2022-11-09T11:54:43;6.57;;;3.70;;
29824;SDS011;16713;52.916;12.834;2022-11-09T12:10:44;4.78;;;3.05;;
29824;SDS011;16713;52.916;12.834;2022-11-09T12:16:06;3.10;;;2.28;;
29824;SDS011;16713;52.916;12.834;2022-11-09T12:29:38;2.20;;;2.00;;
29824;SDS011;16713;52.916;12.834;2022-11-09T12:37:35;5.90;;;3.55;;
29824;SDS011;16713;52.916;12.834;2022-11-09T12:40:22;2.88;;;2.20;;
29824;SDS011;16713;52.916;12.834;2022-11-09T12:42:58;4.10;;;2.97;;
29824;SDS011;16713;52.916;12.834;2022-11-09T12:45:31;3.13;;;2.15;;
29824;SDS011;16713;52.916;12.834;2022-11-09T12:48:04;2.70;;;2.13;;
29824;SDS011;16713;52.916;12.834;2022-11-09T12:50:37;5.28;;;2.53;;
29824;SDS011;16713;52.916;12.834;2022-11-09T12:53:04;3.72;;;2.00;;
29824;SDS011;16713;52.916;12.834;2022-11-09T12:55:35;2.42;;;2.10;;
29824;SDS011;16713;52.916;12.834;2022-11-09T12:58:27;3.88;;;2.25;;
29824;SDS011;16713;52.916;12.834;2022-11-09T13:00:57;1.95;;;1.75;;
29824;SDS011;16713;52.916;12.834;2022-11-09T13:03:27;3.15;;;2.13;;
29824;SDS011;16713;52.916;12.834;2022-11-09T13:09:03;4.28;;;2.88;;
29824;SDS011;16713;52.916;12.834;2022-11-09T13:11:36;3.95;;;2.75;;
29824;SDS011;16713;52.916;12.834;2022-11-09T13:16:48;3.75;;;3.00;;
29824;SDS011;16713;52.916;12.834;2022-11-09T13:27:00;3.88;;;2.60;;
29824;SDS011;16713;52.916;12.834;2022-11-09T13:29:29;2.10;;;1.77;;
29824;SDS011;16713;52.916;12.834;2022-11-09T13:32:21;2.25;;;1.50;;
29824;SDS011;16713;52.916;12.834;2022-11-09T13:34:51;5.53;;;1.38;;
29824;SDS011;16713;52.916;12.834;2022-11-09T13:42:57;3.17;;;1.90;;
29824;SDS011;16713;52.916;12.834;2022-11-09T13:45:26;3.00;;;1.60;;
29824;SDS011;16713;52.916;12.834;2022-11-09T13:47:57;2.08;;;1.80;;
29824;SDS011;16713;52.916;12.834;2022-11-09T13:50:27;2.50;;;1.58;;
29824;SDS011;16713;52.916;12.834;2022-11-09T13:52:57;2.20;;;2.00;;
29824;SDS011;16713;52.916;12.834;2022-11-09T13:57:59;4.20;;;2.00;;
29824;SDS011;16713;52.916;12.834;2022-11-09T14:00:29;2.60;;;1.83;;
29824;SDS011;16713;52.916;12.834;2022-11-09T14:02:57;2.38;;;1.42;;
29824;SDS011;16713;52.916;12.834;2022-11-09T14:05:28;5.20;;;2.00;;
29824;SDS011;16713;52.916;12.834;2022-11-09T14:07:59;2.08;;;1.70;;
29824;SDS011;16713;52.916;12.834;2022-11-09T14:24:19;4.15;;;1.80;;
29824;SDS011;16713;52.916;12.834;2022-11-09T14:32:23;2.80;;;1.00;;
29824;SDS011;16713;52.916;12.834;2022-11-09T14:34:50;4.22;;;1.00;;
29824;SDS011;16713;52.916;12.834;2022-11-09T14:37:17;2.38;;;1.10;;
29824;SDS011;16713;52.916;12.834;2022-11-09T14:39:48;1.75;;;1.00;;
29824;SDS011;16713;52.916;12.834;2022-11-09T14:42:17;0.82;;;0.70;;
29824;SDS011;16713;52.916;12.834;2022-11-09T14:44:46;0.50;;;0.50;;
29824;SDS011;16713;52.916;12.834;2022-11-09T14:47:15;1.88;;;0.70;;
29824;SDS011;16713;52.916;12.834;2022-11-09T14:49:43;1.33;;;0.80;;
29824;SDS011;16713;52.916;12.834;2022-11-09T14:52:11;7.30;;;1.77;;
29824;SDS011;16713;52.916;12.834;2022-11-09T14:54:43;2.08;;;1.02;;
29824;SDS011;16713;52.916;12.834;2022-11-09T14:57:12;1.15;;;0.70;;
29824;SDS011;16713;52.916;12.834;2022-11-09T14:59:42;0.75;;;0.73;;
29824;SDS011;16713;52.916;12.834;2022-11-09T15:02:11;0.95;;;0.80;;
29824;SDS011;16713;52.916;12.834;2022-11-09T15:04:50;5.00;;;0.80;;
29824;SDS011;16713;52.916;12.834;2022-11-09T15:07:19;1.38;;;0.70;;
29824;SDS011;16713;52.916;12.834;2022-11-09T15:09:48;1.00;;;0.90;;
29824;SDS011;16713;52.916;12.834;2022-11-09T15:12:19;0.80;;;0.80;;
29824;SDS011;16713;52.916;12.834;2022-11-09T15:14:47;1.52;;;0.80;;
29824;SDS011;16713;52.916;12.834;2022-11-09T15:17:31;3.35;;;1.00;;
29824;SDS011;16713;52.916;12.834;2022-11-09T15:20:00;4.15;;;1.50;;
29824;SDS011;16713;52.916;12.834;2022-11-09T15:25:29;2.85;;;2.20;;
29824;SDS011;16713;52.916;12.834;2022-11-09T15:35:56;8.65;;;3.47;;
29824;SDS011;16713;52.916;12.834;2022-11-09T15:38:42;2.65;;;1.67;;
29824;SDS011;16713;52.916;12.834;2022-11-09T15:41:11;1.65;;;1.55;;
29824;SDS011;16713;52.916;12.834;2022-11-09T15:43:42;2.15;;;1.20;;
29824;SDS011;16713;52.916;12.834;2022-11-09T15:46:13;5.32;;;2.50;;
29824;SDS011;16713;52.916;12.834;2022-11-09T15:48:44;1.95;;;1.35;;
29824;SDS011;16713;52.916;12.834;2022-11-09T15:51:12;4.13;;;1.88;;
29824;SDS011;16713;52.916;12.834;2022-11-09T15:53:39;5.85;;;3.15;;
29824;SDS011;16713;52.916;12.834;2022-11-09T15:56:06;8.20;;;3.35;;
29824;SDS011;16713;52.916;12.834;2022-11-09T15:58:35;6.05;;;4.38;;
29824;SDS011;16713;52.916;12.834;2022-11-09T16:01:02;7.55;;;4.50;;
29824;SDS011;16713;52.916;12.834;2022-11-09T16:03:28;4.38;;;2.30;;
29824;SDS011;16713;52.916;12.834;2022-11-09T16:05:55;2.30;;;1.90;;
29824;SDS011;16713;52.916;12.834;2022-11-09T16:08:21;2.10;;;1.90;;
29824;SDS011;16713;52.916;12.834;2022-11-09T16:10:48;2.08;;;1.27;;
29824;SDS011;16713;52.916;12.834;2022-11-09T16:13:15;2.38;;;1.40;;
29824;SDS011;16713;52.916;12.834;2022-11-09T16:15:41;1.15;;;1.00;;
29824;SDS011;16713;52.916;12.834;2022-11-09T16:18:08;2.95;;;1.33;;
29824;SDS011;16713;52.916;12.834;2022-11-09T16:20:35;2.47;;;1.25;;
29824;SDS011;16713;52.916;12.834;2022-11-09T16:23:02;3.05;;;1.50;;
29824;SDS011;16713;52.916;12.834;2022-11-09T16:25:28;5.18;;;1.83;;
29824;SDS011;16713;52.916;12.834;2022-11-09T16:27:55;4.97;;;3.35;;
29824;SDS011;16713;52.916;12.834;2022-11-09T16:30:21;7.57;;;5.25;;
29824;SDS011;16713;52.916;12.834;2022-11-09T16:32:48;11.50;;;8.43;;
29824;SDS011;16713;52.916;12.834;2022-11-09T16:35:14;14.00;;;11.10;;
29824;SDS011;16713;52.916;12.834;2022-11-09T16:37:52;14.60;;;9.55;;
29824;SDS011;16713;52.916;12.834;2022-11-09T16:40:20;14.13;;;7.68;;
29824;SDS011;16713;52.916;12.834;2022-11-09T16:42:47;6.15;;;5.20;;
29824;SDS011;16713;52.916;12.834;2022-11-09T16:45:14;8.25;;;5.90;;
29824;SDS011;16713;52.916;12.834;2022-11-09T16:47:43;6.15;;;4.40;;
29824;SDS011;16713;52.916;12.834;2022-11-09T16:50:14;6.15;;;5.55;;
29824;SDS011;16713;52.916;12.834;2022-11-09T16:52:41;7.25;;;4.80;;
29824;SDS011;16713;52.916;12.834;2022-11-09T16:55:07;3.88;;;3.10;;
29824;SDS011;16713;52.916;12.834;2022-11-09T16:57:35;3.20;;;2.35;;
29824;SDS011;16713;52.916;12.834;2022-11-09T17:00:03;3.90;;;1.95;;
29824;SDS011;16713;52.916;12.834;2022-11-09T17:02:31;3.60;;;1.80;;
29824;SDS011;16713;52.916;12.834;2022-11-09T17:04:58;3.17;;;1.63;;
29824;SDS011;16713;52.916;12.834;2022-11-09T17:07:24;2.40;;;1.33;;
29824;SDS011;16713;52.916;12.834;2022-11-09T17:09:52;1.83;;;1.50;;